Terminal Aerodrome Forecast
Issued by NWS

Current Version | Previous Version | Text Only | Print | Product List | Glossary On
Versions: 1 2 3 4 5 6 7 8 9 10 11 12 13 14 15 16 17 18 19 20 21 22
285
FTUS42 KJAX 162248 AAA
TAFVQQ
TAF AMD
KVQQ 162248Z 1623/1718 01005KT 3SM SHRA VCTS SCT020 BKN030CB
      TEMPO 1700/1702 VRB12G25KT 1SM +TSRA SCT015 BKN025CB
     FM170500 36010KT P6SM VCSH SCT010 OVC020
     FM171400 03014G24KT P6SM SCT015 OVC030=

USA.gov is the U.S. government's official web portal to all federal, state and local government web resources and services.